createdAt,value
2023-10-09T00:00:58.503Z,48.42
2023-10-09T00:02:00.086Z,48.82
2023-10-09T00:03:01.733Z,48.82
2023-10-09T00:04:03.448Z,48.35
2023-10-09T00:05:04.961Z,48.90
2023-10-09T00:06:06.638Z,48.86
2023-10-09T00:07:10.552Z,48.51
2023-10-09T00:08:12.189Z,48.53
2023-10-09T00:09:13.687Z,48.76
2023-10-09T00:10:15.249Z,48.98
2023-10-09T00:11:17.068Z,48.71
2023-10-09T00:12:18.741Z,48.62
2023-10-09T00:13:20.325Z,49.03
2023-10-09T00:14:22.065Z,48.89
2023-10-09T00:15:23.625Z,48.72
2023-10-09T00:16:25.187Z,49.12
2023-10-09T00:17:26.641Z,48.98
2023-10-09T00:18:29.243Z,48.77
2023-10-09T00:19:30.792Z,48.97
2023-10-09T00:20:32.268Z,48.79
2023-10-09T00:21:34.098Z,48.83
2023-10-09T00:22:35.603Z,49.05
2023-10-09T00:23:37.079Z,48.80
2023-10-09T00:24:38.589Z,48.83
2023-10-09T00:25:40.215Z,48.69
2023-10-09T00:26:41.826Z,48.64
2023-10-09T00:27:43.307Z,49.06
2023-10-09T00:28:44.890Z,49.02
2023-10-09T00:29:46.455Z,48.54
2023-10-09T00:30:47.946Z,49.03
2023-10-09T00:31:49.475Z,48.69
2023-10-09T00:32:51.061Z,49.03
2023-10-09T00:33:52.606Z,48.73
2023-10-09T00:34:54.121Z,49.05
2023-10-09T00:35:56.423Z,48.54
2023-10-09T00:36:58.286Z,48.57
2023-10-09T00:37:59.824Z,48.57
2023-10-09T00:39:01.434Z,49.13
2023-10-09T00:40:02.906Z,49.05
2023-10-09T00:41:04.704Z,49.11
2023-10-09T00:42:06.251Z,49.19
2023-10-09T00:43:07.795Z,48.81
2023-10-09T00:44:09.333Z,48.90
2023-10-09T00:45:10.858Z,49.02
2023-10-09T00:46:13.410Z,48.92
2023-10-09T00:47:15.004Z,48.88
2023-10-09T00:48:16.598Z,48.95
2023-10-09T00:49:18.729Z,49.12
2023-10-09T00:50:20.191Z,49.11
2023-10-09T00:51:21.694Z,49.27
2023-10-09T00:52:23.172Z,49.33
2023-10-09T00:53:24.755Z,49.47
2023-10-09T00:54:26.238Z,49.24
2023-10-09T00:55:27.708Z,49.53
2023-10-09T00:56:29.183Z,49.24
2023-10-09T00:57:30.989Z,49.23
2023-10-09T00:58:33.343Z,49.24
2023-10-09T00:59:34.822Z,49.68
2023-10-09T01:00:36.295Z,49.67
2023-10-09T01:01:37.922Z,50.22
2023-10-09T01:02:39.514Z,49.99
2023-10-09T01:03:41.554Z,50.36
2023-10-09T01:04:43.230Z,50.02
2023-10-09T01:05:44.728Z,50.68
2023-10-09T01:06:46.211Z,50.33
2023-10-09T01:07:47.715Z,50.79
2023-10-09T01:08:50.854Z,50.48
2023-10-09T01:09:52.327Z,50.80
2023-10-09T01:10:53.861Z,50.70
2023-10-09T01:11:55.445Z,50.58
2023-10-09T01:12:56.937Z,50.67
2023-10-09T01:13:58.450Z,50.79
2023-10-09T01:14:59.913Z,50.73
2023-10-09T01:16:01.691Z,50.68
2023-10-09T01:17:03.186Z,50.64
2023-10-09T01:18:04.884Z,50.58
2023-10-09T01:19:08.657Z,50.27
2023-10-09T01:20:10.162Z,50.34
2023-10-09T01:21:12.044Z,50.83
2023-10-09T01:22:13.686Z,50.81
2023-10-09T01:23:18.330Z,50.96
2023-10-09T01:24:19.868Z,50.88
2023-10-09T01:25:21.717Z,50.83
2023-10-09T01:26:23.508Z,51.17
2023-10-09T01:27:25.368Z,51.21
2023-10-09T01:28:26.889Z,51.09
2023-10-09T01:29:28.582Z,51.06
2023-10-09T01:30:30.140Z,51.38
2023-10-09T01:31:31.892Z,51.02
2023-10-09T01:32:33.433Z,51.17
2023-10-09T01:33:34.944Z,51.29
2023-10-09T01:34:36.483Z,51.11
2023-10-09T01:35:38.254Z,51.62
2023-10-09T01:36:40.025Z,51.78
2023-10-09T01:37:41.501Z,51.75
2023-10-09T01:38:42.947Z,51.83
2023-10-09T01:39:44.452Z,51.67
2023-10-09T01:40:45.965Z,51.62
2023-10-09T01:41:47.453Z,51.80
2023-10-09T01:42:48.941Z,51.96
2023-10-09T01:43:50.406Z,51.71
2023-10-09T01:44:51.986Z,51.54
2023-10-09T01:45:53.598Z,51.93
2023-10-09T01:46:58.269Z,51.66
2023-10-09T01:48:00.064Z,51.68
2023-10-09T01:49:01.646Z,52.14
2023-10-09T01:50:03.302Z,51.93
2023-10-09T01:51:04.832Z,51.98
2023-10-09T01:52:06.555Z,52.39
2023-10-09T01:53:07.985Z,52.24
2023-10-09T01:54:09.528Z,52.21
2023-10-09T01:55:11.034Z,52.01
2023-10-09T01:56:12.520Z,52.21
2023-10-09T01:57:14.051Z,52.04
2023-10-09T01:58:15.624Z,51.86
2023-10-09T01:59:17.143Z,52.18
2023-10-09T02:00:18.664Z,52.16
2023-10-09T02:01:20.466Z,52.13
2023-10-09T02:02:21.966Z,52.26
2023-10-09T02:03:23.815Z,51.83
2023-10-09T02:04:25.404Z,51.63
2023-10-09T02:05:27.056Z,51.81
2023-10-09T02:06:28.605Z,51.96
2023-10-09T02:07:30.098Z,51.99
2023-10-09T02:08:31.627Z,51.96
2023-10-09T02:09:37.696Z,51.67
2023-10-09T02:10:39.235Z,51.76
2023-10-09T02:11:40.763Z,51.82
2023-10-09T02:12:42.237Z,52.03
2023-10-09T02:13:43.708Z,51.77
2023-10-09T02:14:45.520Z,51.58
2023-10-09T02:15:47.564Z,51.53
2023-10-09T02:16:49.393Z,51.50
2023-10-09T02:17:50.874Z,51.54
2023-10-09T02:18:52.470Z,51.75
2023-10-09T02:19:54.147Z,51.39
2023-10-09T02:20:55.633Z,51.38
2023-10-09T02:21:57.175Z,51.34
2023-10-09T02:22:58.618Z,51.40
2023-10-09T02:24:00.160Z,51.44
2023-10-09T02:25:01.679Z,51.35
2023-10-09T02:26:03.154Z,51.47
2023-10-09T02:27:04.743Z,51.69
2023-10-09T02:28:06.240Z,51.13
2023-10-09T02:29:07.688Z,51.08
2023-10-09T02:30:09.237Z,51.17
2023-10-09T02:31:10.766Z,51.41
2023-10-09T02:32:12.387Z,51.43
2023-10-09T02:33:13.909Z,51.42
2023-10-09T02:34:15.581Z,51.64
2023-10-09T02:35:17.216Z,51.36
2023-10-09T02:36:18.745Z,51.29
2023-10-09T02:37:21.524Z,51.19
2023-10-09T02:38:22.983Z,51.45
2023-10-09T02:39:25.169Z,51.41
2023-10-09T02:40:26.849Z,51.63
2023-10-09T02:41:28.321Z,51.37
2023-10-09T02:42:29.860Z,51.69
2023-10-09T02:43:31.382Z,51.19
2023-10-09T02:44:33.059Z,51.27
2023-10-09T02:45:34.642Z,51.53
2023-10-09T02:46:36.164Z,51.81
2023-10-09T02:47:37.744Z,51.46
2023-10-09T02:48:39.266Z,51.43
2023-10-09T02:49:40.753Z,51.60
2023-10-09T02:50:42.224Z,51.63
2023-10-09T02:51:43.726Z,51.46
2023-10-09T02:52:45.233Z,51.84
2023-10-09T02:53:46.707Z,51.60
2023-10-09T02:54:48.145Z,51.69
2023-10-09T02:55:49.591Z,51.55
2023-10-09T02:56:51.128Z,51.76
2023-10-09T02:57:52.640Z,51.71
2023-10-09T02:58:54.112Z,51.82
2023-10-09T02:59:55.620Z,51.91
2023-10-09T03:00:57.221Z,51.84
2023-10-09T03:01:58.705Z,51.93
2023-10-09T03:03:00.283Z,51.91
2023-10-09T03:04:01.957Z,52.02
2023-10-09T03:05:03.582Z,51.68
2023-10-09T03:06:05.116Z,51.76
2023-10-09T03:07:06.661Z,51.81
2023-10-09T03:08:08.143Z,52.28
2023-10-09T03:09:09.641Z,51.93
2023-10-09T03:10:11.261Z,51.84
2023-10-09T03:11:12.733Z,52.14
2023-10-09T03:12:14.321Z,52.23
2023-10-09T03:13:16.004Z,51.81
2023-10-09T03:14:17.472Z,52.09
2023-10-09T03:15:19.050Z,51.93
2023-10-09T03:16:22.311Z,52.02
2023-10-09T03:17:24.165Z,52.23
2023-10-09T03:18:25.761Z,52.27
2023-10-09T03:19:27.293Z,52.44
2023-10-09T03:20:28.777Z,52.41
2023-10-09T03:21:30.310Z,52.42
2023-10-09T03:22:31.854Z,52.08
2023-10-09T03:23:33.346Z,51.94
2023-10-09T03:24:34.893Z,52.00
2023-10-09T03:25:36.398Z,52.17
2023-10-09T03:26:41.062Z,52.38
2023-10-09T03:27:42.523Z,52.13
2023-10-09T03:28:44.019Z,52.38
2023-10-09T03:29:45.494Z,52.45
2023-10-09T03:30:47.011Z,52.61
2023-10-09T03:31:48.580Z,52.61
2023-10-09T03:32:50.083Z,52.56
2023-10-09T03:33:51.660Z,52.43
2023-10-09T03:34:53.192Z,53.02
2023-10-09T03:35:54.705Z,52.88
2023-10-09T03:36:56.175Z,52.56
2023-10-09T03:37:57.619Z,53.03
2023-10-09T03:38:59.207Z,52.56
2023-10-09T03:40:00.946Z,52.81
2023-10-09T03:41:02.823Z,52.48
2023-10-09T03:42:04.317Z,52.47
2023-10-09T03:43:05.831Z,52.48
2023-10-09T03:44:07.312Z,52.55
2023-10-09T03:45:08.804Z,52.60
2023-10-09T03:46:10.340Z,52.77
2023-10-09T03:47:11.833Z,52.52
2023-10-09T03:48:13.362Z,52.80
2023-10-09T03:49:14.924Z,52.81
2023-10-09T03:50:16.374Z,52.75
2023-10-09T03:51:17.878Z,52.80
2023-10-09T03:52:19.415Z,52.59
2023-10-09T03:53:20.872Z,52.60
2023-10-09T03:54:22.411Z,52.26
2023-10-09T03:55:28.044Z,52.46
2023-10-09T03:56:29.535Z,51.99
2023-10-09T03:57:31.112Z,52.23
2023-10-09T03:58:32.605Z,52.09
2023-10-09T03:59:34.112Z,52.00
2023-10-09T04:00:35.650Z,51.79
2023-10-09T04:01:37.173Z,51.73
2023-10-09T04:02:38.711Z,51.87
2023-10-09T04:03:40.340Z,51.88
2023-10-09T04:04:41.978Z,51.69
2023-10-09T04:05:43.504Z,51.61
2023-10-09T04:06:44.953Z,51.52
2023-10-09T04:07:47.112Z,51.79
2023-10-09T04:08:48.563Z,51.95
2023-10-09T04:09:50.062Z,51.80
2023-10-09T04:10:52.488Z,51.91
2023-10-09T04:11:55.730Z,51.72
2023-10-09T04:12:57.187Z,51.46
2023-10-09T04:13:58.659Z,51.67
2023-10-09T04:15:00.225Z,51.79
2023-10-09T04:16:01.767Z,51.86
2023-10-09T04:17:03.255Z,51.74
2023-10-09T04:18:04.795Z,51.79
2023-10-09T04:19:06.440Z,51.86
2023-10-09T04:20:07.967Z,51.75
2023-10-09T04:21:09.467Z,51.68
2023-10-09T04:22:11.062Z,51.64
2023-10-09T04:23:12.558Z,51.77
2023-10-09T04:24:14.246Z,51.46
2023-10-09T04:25:16.071Z,51.87
2023-10-09T04:26:17.593Z,51.83
2023-10-09T04:27:19.142Z,51.79
2023-10-09T04:28:21.202Z,51.61
2023-10-09T04:29:22.923Z,51.66
2023-10-09T04:30:24.854Z,51.46
2023-10-09T04:31:26.552Z,51.46
2023-10-09T04:32:28.063Z,51.73
2023-10-09T04:33:29.814Z,51.67
2023-10-09T04:34:31.516Z,51.58
2023-10-09T04:35:35.752Z,51.57
2023-10-09T04:36:37.274Z,51.27
2023-10-09T04:37:38.843Z,51.75
2023-10-09T04:38:40.428Z,51.24
2023-10-09T04:39:41.955Z,51.79
2023-10-09T04:40:43.678Z,51.45
2023-10-09T04:41:45.409Z,51.85
2023-10-09T04:42:46.875Z,51.77
2023-10-09T04:43:48.329Z,51.52
2023-10-09T04:44:49.810Z,51.52
2023-10-09T04:45:51.330Z,51.50
2023-10-09T04:46:52.797Z,51.44
2023-10-09T04:47:54.286Z,51.52
2023-10-09T04:48:55.841Z,51.52
2023-10-09T04:49:57.310Z,51.78
2023-10-09T04:50:58.888Z,51.79
2023-10-09T04:52:00.425Z,51.42
2023-10-09T04:53:01.924Z,51.69
2023-10-09T04:54:03.441Z,51.61
2023-10-09T04:55:04.924Z,51.49
2023-10-09T04:56:06.422Z,51.06
2023-10-09T04:57:07.966Z,51.57
2023-10-09T04:58:09.541Z,51.57
2023-10-09T04:59:11.026Z,51.55
2023-10-09T05:00:12.602Z,51.08
2023-10-09T05:01:14.292Z,51.46
2023-10-09T05:02:15.874Z,51.43
2023-10-09T05:03:17.528Z,51.51
2023-10-09T05:04:21.081Z,51.45
2023-10-09T05:05:22.735Z,50.99
2023-10-09T05:06:24.338Z,51.41
2023-10-09T05:07:25.830Z,51.21
2023-10-09T05:08:27.291Z,51.08
2023-10-09T05:09:28.788Z,51.17
2023-10-09T05:10:30.290Z,51.39
2023-10-09T05:11:31.809Z,51.34
2023-10-09T05:12:33.324Z,51.45
2023-10-09T05:13:34.797Z,51.53
2023-10-09T05:14:36.239Z,51.31
2023-10-09T05:15:37.742Z,51.43
2023-10-09T05:16:39.323Z,51.32
2023-10-09T05:17:41.056Z,51.43
2023-10-09T05:18:42.794Z,51.44
2023-10-09T05:19:44.301Z,51.22
2023-10-09T05:20:45.774Z,51.19
2023-10-09T05:21:47.289Z,51.64
2023-10-09T05:22:48.802Z,51.64
2023-10-09T05:23:50.299Z,51.12
2023-10-09T05:24:51.779Z,51.45
2023-10-09T05:25:53.313Z,51.08
2023-10-09T05:26:54.825Z,51.61
2023-10-09T05:27:56.282Z,51.05
2023-10-09T05:28:57.748Z,51.06
2023-10-09T05:29:59.250Z,51.38
2023-10-09T05:31:00.742Z,51.23
2023-10-09T05:32:02.302Z,51.15
2023-10-09T05:33:06.975Z,50.95
2023-10-09T05:34:08.473Z,50.97
2023-10-09T05:35:09.972Z,50.76
2023-10-09T05:36:11.478Z,50.90
2023-10-09T05:37:12.998Z,50.88
2023-10-09T05:38:14.445Z,50.89
2023-10-09T05:39:16.168Z,51.32
2023-10-09T05:40:18.013Z,51.33
2023-10-09T05:41:19.596Z,51.27
2023-10-09T05:42:21.174Z,50.84
2023-10-09T05:43:22.652Z,50.88
2023-10-09T05:44:24.122Z,51.16
2023-10-09T05:45:25.640Z,51.40
2023-10-09T05:46:27.166Z,51.02
2023-10-09T05:47:28.697Z,51.02
2023-10-09T05:48:30.207Z,51.47
2023-10-09T05:49:31.735Z,51.31
2023-10-09T05:50:33.203Z,51.04
2023-10-09T05:51:34.669Z,51.14
2023-10-09T05:52:36.289Z,51.59
2023-10-09T05:53:37.800Z,51.17
2023-10-09T05:54:39.348Z,51.40
2023-10-09T05:55:40.891Z,51.32
2023-10-09T05:56:42.384Z,51.46
2023-10-09T05:57:43.942Z,52.02
2023-10-09T05:58:45.449Z,51.81
2023-10-09T05:59:46.948Z,51.98
2023-10-09T06:00:48.437Z,51.74
2023-10-09T06:01:50.010Z,51.96
2023-10-09T06:02:59.749Z,51.76
2023-10-09T06:04:03.967Z,51.91
2023-10-09T06:05:05.692Z,51.84
2023-10-09T06:06:07.188Z,51.67
2023-10-09T06:07:08.674Z,52.02
2023-10-09T06:08:10.204Z,51.79
2023-10-09T06:09:11.873Z,52.16
2023-10-09T06:10:13.399Z,52.12
2023-10-09T06:11:14.897Z,52.29
2023-10-09T06:12:16.399Z,52.03
2023-10-09T06:13:17.998Z,52.04
2023-10-09T06:14:19.505Z,52.44
2023-10-09T06:15:23.925Z,51.89
2023-10-09T06:16:25.550Z,51.90
2023-10-09T06:17:27.031Z,52.02
2023-10-09T06:18:28.653Z,52.11
2023-10-09T06:19:30.139Z,52.34
2023-10-09T06:20:31.619Z,52.09
2023-10-09T06:21:33.142Z,52.08
2023-10-09T06:22:34.790Z,52.56
2023-10-09T06:23:36.295Z,52.41
2023-10-09T06:24:39.638Z,52.45
2023-10-09T06:25:42.350Z,52.43
2023-10-09T06:26:43.816Z,52.67
2023-10-09T06:27:45.329Z,52.37
2023-10-09T06:28:46.850Z,52.69
2023-10-09T06:29:48.299Z,52.61
2023-10-09T06:30:49.840Z,52.84
2023-10-09T06:31:51.921Z,52.42
2023-10-09T06:32:54.373Z,52.89
2023-10-09T06:33:55.924Z,52.57
2023-10-09T06:34:57.415Z,52.92
2023-10-09T06:35:58.888Z,53.12
2023-10-09T06:37:00.373Z,53.15
2023-10-09T06:38:01.834Z,53.60
2023-10-09T06:39:03.463Z,53.71
2023-10-09T06:40:04.995Z,53.70
2023-10-09T06:41:06.493Z,53.69
2023-10-09T06:42:08.003Z,53.67
2023-10-09T06:43:09.534Z,53.51
2023-10-09T06:44:11.131Z,53.53
2023-10-09T06:45:12.645Z,53.59
2023-10-09T06:46:14.178Z,53.11
2023-10-09T06:47:15.653Z,52.93
2023-10-09T06:48:17.271Z,53.03
2023-10-09T06:49:18.777Z,53.21
2023-10-09T06:50:20.238Z,52.81
2023-10-09T06:51:21.750Z,52.79
2023-10-09T06:52:23.242Z,52.92
2023-10-09T06:53:27.341Z,53.21
2023-10-09T06:54:29.381Z,52.90
2023-10-09T06:55:30.894Z,53.00
2023-10-09T06:56:32.569Z,53.25
2023-10-09T06:57:34.248Z,53.14
2023-10-09T06:58:35.739Z,53.34
2023-10-09T06:59:37.248Z,53.41
2023-10-09T07:00:38.757Z,52.97
2023-10-09T07:01:40.374Z,53.17
2023-10-09T07:02:42.012Z,53.12
2023-10-09T07:03:43.590Z,53.44
2023-10-09T07:04:45.214Z,53.14
2023-10-09T07:05:46.832Z,53.35
2023-10-09T07:06:48.337Z,53.45
2023-10-09T07:07:49.797Z,53.62
2023-10-09T07:08:51.889Z,53.17
2023-10-09T07:09:53.381Z,53.39
2023-10-09T07:10:54.832Z,53.60
2023-10-09T07:11:56.320Z,53.32
2023-10-09T07:12:57.928Z,53.37
2023-10-09T07:13:59.384Z,53.25
2023-10-09T07:15:00.883Z,53.56
2023-10-09T07:16:02.429Z,53.27
2023-10-09T07:17:03.981Z,53.13
2023-10-09T07:18:05.554Z,53.13
2023-10-09T07:19:07.023Z,53.57
2023-10-09T07:20:08.540Z,53.12
2023-10-09T07:21:10.013Z,53.44
2023-10-09T07:22:11.510Z,52.98
2023-10-09T07:23:12.979Z,53.06
2023-10-09T07:24:14.712Z,53.26
2023-10-09T07:25:16.399Z,52.93
2023-10-09T07:26:17.864Z,53.05
2023-10-09T07:27:19.355Z,53.00
2023-10-09T07:28:20.863Z,52.97
2023-10-09T07:29:22.347Z,52.59
2023-10-09T07:30:23.866Z,52.56
2023-10-09T07:31:25.612Z,53.03
2023-10-09T07:32:27.318Z,52.70
2023-10-09T07:33:28.866Z,52.82
2023-10-09T07:34:30.385Z,52.94
2023-10-09T07:35:33.035Z,52.80
2023-10-09T07:36:34.609Z,52.65
2023-10-09T07:37:36.096Z,52.38
2023-10-09T07:38:37.583Z,52.51
2023-10-09T07:39:39.738Z,52.47
2023-10-09T07:40:41.391Z,51.93
2023-10-09T07:41:42.912Z,51.89
2023-10-09T07:42:44.487Z,52.23
2023-10-09T07:43:47.582Z,51.87
2023-10-09T07:44:49.066Z,52.43
2023-10-09T07:45:50.631Z,52.17
2023-10-09T07:46:52.109Z,52.19
2023-10-09T07:47:53.614Z,51.96
2023-10-09T07:48:55.229Z,51.62
2023-10-09T07:49:56.714Z,51.78
2023-10-09T07:50:58.199Z,51.67
2023-10-09T07:51:59.683Z,51.42
2023-10-09T07:53:01.168Z,51.13
2023-10-09T07:54:02.644Z,51.47
2023-10-09T07:55:04.158Z,51.54
2023-10-09T07:56:05.659Z,51.41
2023-10-09T07:57:07.177Z,51.00
2023-10-09T07:58:08.652Z,50.94
2023-10-09T07:59:10.150Z,50.57
2023-10-09T08:00:11.658Z,51.01
2023-10-09T08:01:13.228Z,50.67
2023-10-09T08:02:14.745Z,50.25
2023-10-09T08:03:16.314Z,50.46
2023-10-09T08:04:18.093Z,50.52
2023-10-09T08:05:19.767Z,50.66
2023-10-09T08:06:21.350Z,50.41
2023-10-09T08:08:02.552Z,50.57
2023-10-09T08:08:44.330Z,50.14
2023-10-09T08:09:45.881Z,49.78
2023-10-09T08:10:47.377Z,50.27
2023-10-09T08:11:48.877Z,49.82
2023-10-09T08:12:50.457Z,49.72
2023-10-09T08:13:52.065Z,49.72
2023-10-09T08:14:53.586Z,49.67
2023-10-09T08:15:55.114Z,49.48
2023-10-09T08:16:56.700Z,49.44
2023-10-09T08:17:58.247Z,49.66
2023-10-09T08:18:59.750Z,49.35
2023-10-09T08:20:01.285Z,49.39
2023-10-09T08:21:02.754Z,49.25
2023-10-09T08:22:04.239Z,49.56
2023-10-09T08:23:05.696Z,49.64
2023-10-09T08:25:08.691Z,49.24
2023-10-09T08:26:10.251Z,49.24
2023-10-09T08:27:11.829Z,48.97
2023-10-09T08:28:13.307Z,49.29
2023-10-09T08:29:14.805Z,49.38
2023-10-09T08:30:16.360Z,49.54
2023-10-09T08:31:17.997Z,49.54
2023-10-09T08:34:15.772Z,49.40
2023-10-09T08:34:33.031Z,49.56
2023-10-09T08:35:02.449Z,49.07
2023-10-09T08:36:04.071Z,49.29
2023-10-09T08:37:05.864Z,48.96
2023-10-09T08:38:07.846Z,49.22
2023-10-09T08:39:09.345Z,49.21
2023-10-09T08:40:10.822Z,49.17
2023-10-09T08:41:12.292Z,49.21
2023-10-09T08:42:13.825Z,48.77
2023-10-09T08:43:15.284Z,49.10
2023-10-09T08:44:16.762Z,48.45
2023-10-09T08:45:18.421Z,48.66
2023-10-09T08:46:19.876Z,48.53
2023-10-09T08:47:21.356Z,48.12
2023-10-09T08:48:22.831Z,48.16
2023-10-09T08:49:24.336Z,47.91
2023-10-09T08:50:25.813Z,47.77
2023-10-09T08:51:27.608Z,48.01
2023-10-09T08:52:29.163Z,47.72
2023-10-09T08:53:30.700Z,47.81
2023-10-09T08:54:32.179Z,48.00
2023-10-09T08:55:33.743Z,47.67
2023-10-09T08:56:35.291Z,47.62
2023-10-09T08:57:36.812Z,47.76
2023-10-09T08:58:38.589Z,47.53
2023-10-09T08:59:40.140Z,47.38
2023-10-09T09:00:41.647Z,47.34
2023-10-09T09:01:43.250Z,47.52
2023-10-09T09:02:44.815Z,47.21
2023-10-09T09:03:46.383Z,46.71
2023-10-09T09:04:48.341Z,47.02
2023-10-09T09:05:49.936Z,46.85
2023-10-09T09:06:51.422Z,46.80
2023-10-09T09:07:53.002Z,46.74
2023-10-09T09:08:54.675Z,46.42
2023-10-09T09:09:56.159Z,46.93
2023-10-09T09:10:57.664Z,46.69
2023-10-09T09:11:59.190Z,46.16
2023-10-09T09:13:00.660Z,46.62
2023-10-09T09:14:02.217Z,46.59
2023-10-09T09:15:03.735Z,46.33
2023-10-09T09:16:05.248Z,46.06
2023-10-09T09:17:06.821Z,45.98
2023-10-09T09:18:08.557Z,45.71
2023-10-09T09:19:10.109Z,45.67
2023-10-09T09:20:11.647Z,45.92
2023-10-09T09:21:13.150Z,46.17
2023-10-09T09:22:14.657Z,45.58
2023-10-09T09:23:16.225Z,45.70
2023-10-09T09:24:17.820Z,45.88
2023-10-09T09:25:19.299Z,45.63
2023-10-09T09:26:20.784Z,45.17
2023-10-09T09:27:22.252Z,45.18
2023-10-09T09:28:23.689Z,45.30
2023-10-09T09:29:25.256Z,45.00
2023-10-09T09:30:26.770Z,45.00
2023-10-09T09:31:28.427Z,44.90
2023-10-09T09:32:30.008Z,44.60
2023-10-09T09:33:31.505Z,44.57
2023-10-09T09:34:33.005Z,44.42
2023-10-09T09:35:34.478Z,44.66
2023-10-09T09:36:35.932Z,44.36
2023-10-09T09:37:37.426Z,43.47
2023-10-09T09:38:38.882Z,43.10
2023-10-09T09:39:52.904Z,43.16
2023-10-09T09:40:57.225Z,43.02
2023-10-09T09:41:58.725Z,43.00
2023-10-09T09:43:00.213Z,42.93
2023-10-09T09:44:01.905Z,42.62
2023-10-09T09:45:03.660Z,42.52
2023-10-09T09:46:05.151Z,42.93
2023-10-09T09:47:06.736Z,42.38
2023-10-09T09:48:08.431Z,42.71
2023-10-09T09:49:09.920Z,42.28
2023-10-09T09:50:11.389Z,42.45
2023-10-09T09:51:12.849Z,42.21
2023-10-09T09:52:15.994Z,42.25
2023-10-09T09:53:17.586Z,41.95
2023-10-09T09:54:19.265Z,42.08
2023-10-09T09:55:20.903Z,42.17
2023-10-09T09:56:22.368Z,42.10
2023-10-09T09:57:23.873Z,42.22
2023-10-09T09:58:25.363Z,41.88
2023-10-09T09:59:26.849Z,42.08
2023-10-09T10:00:28.380Z,42.09
2023-10-09T10:01:29.918Z,41.95
2023-10-09T10:02:31.498Z,41.99
2023-10-09T10:03:33.098Z,42.09
2023-10-09T10:04:34.688Z,41.76
2023-10-09T10:05:36.238Z,41.86
2023-10-09T10:06:37.698Z,41.59
2023-10-09T10:07:39.237Z,41.60
2023-10-09T10:08:40.739Z,41.82
2023-10-09T10:09:42.225Z,41.73
2023-10-09T10:10:43.882Z,42.09
2023-10-09T10:11:45.630Z,41.77
2023-10-09T10:12:47.355Z,41.97
2023-10-09T10:13:48.867Z,41.85
2023-10-09T10:14:50.632Z,41.65
2023-10-09T10:15:52.141Z,41.64
2023-10-09T10:16:53.706Z,41.43
2023-10-09T10:17:55.314Z,41.52
2023-10-09T10:18:56.827Z,41.24
2023-10-09T10:19:58.371Z,41.09
2023-10-09T10:20:59.906Z,41.16
2023-10-09T10:22:01.428Z,41.39
2023-10-09T10:23:02.957Z,41.18
2023-10-09T10:24:04.472Z,41.23
2023-10-09T10:25:05.950Z,40.88
2023-10-09T10:26:07.488Z,41.02
2023-10-09T10:27:08.972Z,40.43
2023-10-09T10:28:10.426Z,40.23
2023-10-09T10:29:11.964Z,40.35
2023-10-09T10:30:13.490Z,40.44
2023-10-09T10:31:15.436Z,40.25
2023-10-09T10:32:17.010Z,40.27
2023-10-09T10:33:18.475Z,40.13
2023-10-09T10:34:20.017Z,40.34
2023-10-09T10:35:21.461Z,40.51
2023-10-09T10:36:24.612Z,40.45
2023-10-09T10:37:26.658Z,40.14
2023-10-09T10:38:28.120Z,40.61
2023-10-09T10:39:29.623Z,40.41
2023-10-09T10:40:31.121Z,40.80
2023-10-09T10:41:32.648Z,40.22
2023-10-09T10:42:34.142Z,40.07
2023-10-09T10:43:35.702Z,39.97
2023-10-09T10:44:37.621Z,40.04
2023-10-09T10:45:39.415Z,40.49
2023-10-09T10:46:41.032Z,39.97
2023-10-09T10:47:42.590Z,40.81
2023-10-09T10:48:44.096Z,40.44
2023-10-09T10:49:47.013Z,40.63
2023-10-09T10:50:48.510Z,41.20
2023-10-09T10:51:50.026Z,41.21
2023-10-09T10:52:51.549Z,41.17
2023-10-09T10:53:53.129Z,41.43
2023-10-09T10:54:54.719Z,41.96
2023-10-09T10:55:56.291Z,41.45
2023-10-09T10:56:57.843Z,41.54
2023-10-09T10:57:59.335Z,41.25
2023-10-09T10:59:00.872Z,41.82
2023-10-09T11:00:02.411Z,41.88
2023-10-09T11:01:03.885Z,42.07
2023-10-09T11:02:05.428Z,41.56
2023-10-09T11:03:07.174Z,41.37
2023-10-09T11:04:09.084Z,41.51
2023-10-09T11:05:10.818Z,41.56
2023-10-09T11:06:15.366Z,41.92
2023-10-09T11:07:16.963Z,41.66
2023-10-09T11:08:18.442Z,41.86
2023-10-09T11:09:19.896Z,41.65
2023-10-09T11:10:21.351Z,41.74
2023-10-09T11:11:23.448Z,41.43
2023-10-09T11:12:24.972Z,41.46
2023-10-09T11:13:26.451Z,42.14
2023-10-09T11:14:27.904Z,41.60
2023-10-09T11:15:29.357Z,41.60
2023-10-09T11:16:30.832Z,41.53
2023-10-09T11:17:32.358Z,42.17
2023-10-09T11:18:33.883Z,42.16
2023-10-09T11:19:35.401Z,41.83
2023-10-09T11:20:36.872Z,42.08
2023-10-09T11:21:38.391Z,42.17
2023-10-09T11:22:39.917Z,41.94
2023-10-09T11:23:41.423Z,41.94
2023-10-09T11:24:42.931Z,42.37
2023-10-09T11:25:44.431Z,41.74
2023-10-09T11:26:45.927Z,42.09
2023-10-09T11:27:50.535Z,42.25
2023-10-09T11:28:52.039Z,42.27
2023-10-09T11:29:53.564Z,42.26
2023-10-09T11:30:55.340Z,41.74
2023-10-09T11:31:56.927Z,42.07
2023-10-09T11:32:58.436Z,42.08
2023-10-09T11:33:59.929Z,41.88
2023-10-09T11:35:01.470Z,41.79
2023-10-09T11:36:02.964Z,41.67
2023-10-09T11:37:04.468Z,41.70
2023-10-09T11:38:06.004Z,41.79
2023-10-09T11:39:07.495Z,42.14
2023-10-09T11:40:08.974Z,42.46
2023-10-09T11:41:10.499Z,42.18
2023-10-09T11:42:11.972Z,41.80
2023-10-09T11:43:13.458Z,42.35
2023-10-09T11:44:15.137Z,41.95
2023-10-09T11:45:16.914Z,42.18
2023-10-09T11:46:18.457Z,42.36
2023-10-09T11:47:20.434Z,42.33
2023-10-09T11:48:22.586Z,42.06
2023-10-09T11:49:24.216Z,42.22
2023-10-09T11:50:25.732Z,42.53
2023-10-09T11:51:27.221Z,43.19
2023-10-09T11:52:28.777Z,42.73
2023-10-09T11:53:30.337Z,43.19
2023-10-09T11:54:31.812Z,43.29
2023-10-09T11:55:33.329Z,42.61
2023-10-09T11:56:34.806Z,42.56
2023-10-09T11:57:36.375Z,42.45
2023-10-09T11:58:37.984Z,42.76
2023-10-09T11:59:39.535Z,42.84
2023-10-09T12:00:41.201Z,43.25
2023-10-09T12:01:42.754Z,42.55
2023-10-09T12:02:44.386Z,42.86
2023-10-09T12:03:46.001Z,43.06
2023-10-09T12:04:47.712Z,42.91
2023-10-09T12:05:49.333Z,43.19
2023-10-09T12:06:50.828Z,43.36
2023-10-09T12:07:52.368Z,43.20
2023-10-09T12:08:53.896Z,42.91
2023-10-09T12:09:55.371Z,42.41
2023-10-09T12:10:56.898Z,42.68
2023-10-09T12:12:04.574Z,42.57
2023-10-09T12:13:06.228Z,43.07
2023-10-09T12:14:07.774Z,42.79
2023-10-09T12:15:09.303Z,42.55
2023-10-09T12:16:11.049Z,42.58
2023-10-09T12:17:12.874Z,42.72
2023-10-09T12:18:14.409Z,42.55
2023-10-09T12:19:15.936Z,42.58
2023-10-09T12:20:17.521Z,42.79
2023-10-09T12:21:18.990Z,42.55
2023-10-09T12:22:20.465Z,42.35
2023-10-09T12:23:21.958Z,42.38
2023-10-09T12:24:23.573Z,42.32
2023-10-09T12:25:25.060Z,42.14
2023-10-09T12:26:26.569Z,42.47
2023-10-09T12:27:28.058Z,42.64
2023-10-09T12:28:29.629Z,42.68
2023-10-09T12:29:31.155Z,42.18
2023-10-09T12:30:32.644Z,42.40
2023-10-09T12:31:34.790Z,42.00
2023-10-09T12:32:36.297Z,42.17
2023-10-09T12:33:37.892Z,42.31
2023-10-09T12:34:39.582Z,42.49
2023-10-09T12:35:41.164Z,42.12
2023-10-09T12:36:42.724Z,42.08
2023-10-09T12:37:44.291Z,42.46
2023-10-09T12:38:45.799Z,41.80
2023-10-09T12:39:47.262Z,42.15
2023-10-09T12:40:51.821Z,41.96
2023-10-09T12:41:53.410Z,41.80
2023-10-09T12:42:54.904Z,42.41
2023-10-09T12:43:56.483Z,42.35
2023-10-09T12:44:57.998Z,41.96
2023-10-09T12:45:59.486Z,41.62
2023-10-09T12:47:01.094Z,42.26
2023-10-09T12:48:02.668Z,42.29
2023-10-09T12:49:04.211Z,42.10
2023-10-09T12:50:05.801Z,41.65
2023-10-09T12:51:07.353Z,41.77
2023-10-09T12:52:09.277Z,42.09
2023-10-09T12:53:10.838Z,41.52
2023-10-09T12:54:12.453Z,41.64
2023-10-09T12:55:14.132Z,41.38
2023-10-09T12:56:15.628Z,41.58
2023-10-09T12:57:17.142Z,40.86
2023-10-09T12:58:18.594Z,40.80
2023-10-09T12:59:20.077Z,41.40
2023-10-09T13:00:21.582Z,40.64
2023-10-09T13:01:23.141Z,40.91
2023-10-09T13:02:24.644Z,40.45
2023-10-09T13:03:26.166Z,40.73
2023-10-09T13:04:27.706Z,40.57
2023-10-09T13:05:29.212Z,40.30
2023-10-09T13:07:32.211Z,40.69
2023-10-09T13:08:33.707Z,40.94
2023-10-09T13:09:35.165Z,40.66
2023-10-09T13:10:36.650Z,40.38
2023-10-09T13:11:38.132Z,40.90
2023-10-09T13:12:40.680Z,40.85
2023-10-09T13:13:42.282Z,40.59
2023-10-09T13:14:43.753Z,40.77
2023-10-09T13:15:45.224Z,40.46
2023-10-09T13:16:47.195Z,39.93
2023-10-09T13:17:49.017Z,40.19